Big Bear Station Historical Data
Daily Summary for October 6, 2017 Units:  English    Metric   Both
« Previous Day
Next Day »
Daily Weekly Monthly Yearly Custom
  High: Low: Average:
Temperature: 72.1 °F 33.4 °F 49.9 °F
Dew Point: 30.1 °F 8.9 °F 20.5 °F
Humidity: 75 % 9 % 39 %
Wind Speed: 5.3 mph 0.0 mph 0.8 mph
Wind Gust: -999.0 mph - -
Wind:- - South
Pressure: 30.28 in 30.19 in -
Precipitation: 0.00 in    
Historical Graphs
 
 
Tabular Data for October 6, 2017
Time Temperature Dew Point Pressure Wind Wind Speed Wind Gust Humidity Rainfall Rate (Hourly)
00:06 39.2 °F 23.0 °F 30.19 in Calm   -999.0 mph 52 % 0 in
00:22 39.2 °F 23.0 °F 30.19 in Calm   -999.0 mph 52 % 0 in
00:37 38.8 °F 24.9 °F 30.19 in Calm   -999.0 mph 57 % 0 in
00:52 38.7 °F 25.6 °F 30.19 in Calm   -999.0 mph 59 % 0 in
01:07 38.8 °F 26.5 °F 30.19 in Calm   -999.0 mph 61 % 0 in
01:22 38.7 °F 27.2 °F 30.19 in Calm   -999.0 mph 63 % 0 in
01:38 38.7 °F 27.9 °F 30.19 in Calm   -999.0 mph 65 % 0 in
01:53 38.7 °F 30.1 °F 30.20 in Calm   -999.0 mph 71 % 0 in
02:08 37.9 °F 29.3 °F 30.19 in Calm   -999.0 mph 71 % 0 in
02:23 38.1 °F 28.5 °F 30.19 in Calm   -999.0 mph 68 % 0 in
02:38 38.1 °F 28.5 °F 30.19 in Calm   -999.0 mph 68 % 0 in
02:54 37.8 °F 27.5 °F 30.19 in Calm   -999.0 mph 66 % 0 in
03:09 37.9 °F 26.8 °F 30.19 in Calm   -999.0 mph 64 % 0 in
03:24 37.8 °F 27.1 °F 30.19 in Calm   -999.0 mph 65 % 0 in
03:40 37.0 °F 24.8 °F 30.19 in Calm   -999.0 mph 61 % 0 in
03:55 36.9 °F 20.4 °F 30.19 in ESE 1.7 mph -999.0 mph 51 % 0 in
04:10 36.5 °F 20.1 °F 30.19 in Calm   -999.0 mph 51 % 0 in
04:41 35.6 °F 25.0 °F 30.20 in Calm   -999.0 mph 65 % 0 in
04:56 34.9 °F 26.5 °F 30.20 in Calm   -999.0 mph 71 % 0 in
05:11 35.2 °F 26.7 °F 30.20 in Calm   -999.0 mph 71 % 0 in
05:26 34.7 °F 26.6 °F 30.20 in Calm   -999.0 mph 72 % 0 in
05:42 34.5 °F 22.8 °F 30.20 in Calm   -999.0 mph 62 % 0 in
05:57 34.5 °F 22.0 °F 30.22 in Calm   -999.0 mph 60 % 0 in
06:12 34.0 °F 26.6 °F 30.22 in Calm   -999.0 mph 74 % 0 in
06:27 33.8 °F 26.4 °F 30.22 in Calm   -999.0 mph 74 % 0 in
06:42 33.6 °F 25.9 °F 30.23 in Calm   -999.0 mph 73 % 0 in
06:58 33.8 °F 26.4 °F 30.23 in Calm   -999.0 mph 74 % 0 in
07:13 33.6 °F 26.5 °F 30.24 in Calm   -999.0 mph 75 % 0 in
07:28 33.4 °F 26.3 °F 30.24 in Calm   -999.0 mph 75 % 0 in
07:43 33.4 °F 24.7 °F 30.25 in Calm   -999.0 mph 70 % 0 in
07:58 33.6 °F 24.2 °F 30.25 in Calm   -999.0 mph 68 % 0 in
08:14 34.9 °F 24.3 °F 30.25 in Calm   -999.0 mph 65 % 0 in
08:29 35.4 °F 24.4 °F 30.26 in Calm   -999.0 mph 64 % 0 in
08:44 36.9 °F 26.6 °F 30.26 in Calm   -999.0 mph 66 % 0 in
08:59 38.8 °F 26.9 °F 30.27 in Calm   -999.0 mph 62 % 0 in
09:14 43.5 °F 24.1 °F 30.27 in South 1.1 mph -999.0 mph 46 % 0 in
09:30 49.3 °F 19.9 °F 30.27 in ESE 1.7 mph -999.0 mph 31 % 0 in
09:45 52.5 °F 19.5 °F 30.28 in NNW 2.7 mph -999.0 mph 27 % 0 in
10:00 54.3 °F 20.1 °F 30.28 in NE 1.1 mph -999.0 mph 26 % 0 in
10:15 56.5 °F 20.1 °F 30.28 in Calm   -999.0 mph 24 % 0 in
10:30 58.8 °F 17.8 °F 30.28 in WNW 5.3 mph -999.0 mph 20 % 0 in
10:46 61.5 °F 20.0 °F 30.28 in West 3.2 mph -999.0 mph 20 % 0 in
11:01 62.8 °F 21.1 °F 30.28 in NNW 3.7 mph -999.0 mph 20 % 0 in
11:16 63.9 °F 20.8 °F 30.28 in SW 2.2 mph -999.0 mph 19 % 0 in
11:31 64.8 °F 20.3 °F 30.28 in West 2.7 mph -999.0 mph 18 % 0 in
11:47 65.1 °F 21.8 °F 30.28 in East 3.7 mph -999.0 mph 19 % 0 in
12:02 67.1 °F 23.4 °F 30.27 in East 1.7 mph -999.0 mph 19 % 0 in
12:17 67.8 °F 21.4 °F 30.27 in NNE 1.7 mph -999.0 mph 17 % 0 in
12:32 67.5 °F 21.1 °F 30.26 in ENE 2.2 mph -999.0 mph 17 % 0 in
12:47 69.4 °F 22.7 °F 30.26 in ESE 1.7 mph -999.0 mph 17 % 0 in
13:03 69.6 °F 19.9 °F 30.26 in NE 2.2 mph -999.0 mph 15 % 0 in
13:18 72.0 °F 16.6 °F 30.25 in ESE 3.2 mph -999.0 mph 12 % 0 in
13:34 71.1 °F 15.9 °F 30.25 in East 2.7 mph -999.0 mph 12 % 0 in
13:49 72.0 °F 12.4 °F 30.25 in East 2.2 mph -999.0 mph 10 % 0 in
14:04 71.8 °F 14.4 °F 30.24 in SSE 1.7 mph -999.0 mph 11 % 0 in
14:19 71.1 °F 13.9 °F 30.24 in ENE 4.2 mph -999.0 mph 11 % 0 in
14:34 72.1 °F 14.7 °F 30.24 in SE 1.1 mph -999.0 mph 11 % 0 in
14:50 70.5 °F 8.9 °F 30.24 in NNW 2.7 mph -999.0 mph 9 % 0 in
15:05 70.9 °F 13.7 °F 30.24 in North 2.7 mph -999.0 mph 11 % 0 in
15:20 71.1 °F 11.7 °F 30.23 in Calm   -999.0 mph 10 % 0 in
15:36 70.7 °F 11.4 °F 30.23 in SE 1.7 mph -999.0 mph 10 % 0 in
15:51 69.1 °F 12.3 °F 30.23 in ESE 2.2 mph -999.0 mph 11 % 0 in
16:06 69.6 °F 14.7 °F 30.23 in West 2.7 mph -999.0 mph 12 % 0 in
16:22 68.9 °F 16.0 °F 30.23 in ESE 1.1 mph -999.0 mph 13 % 0 in
16:37 68.0 °F 17.0 °F 30.23 in WNW 2.2 mph -999.0 mph 14 % 0 in
16:53 67.3 °F 14.7 °F 30.23 in Calm   -999.0 mph 13 % 0 in
17:08 66.4 °F 14.0 °F 30.23 in Calm   -999.0 mph 13 % 0 in
17:23 65.1 °F 13.0 °F 30.23 in Calm   -999.0 mph 13 % 0 in
17:38 63.5 °F 13.4 °F 30.23 in Calm   -999.0 mph 14 % 0 in
17:53 61.9 °F 13.7 °F 30.23 in Calm   -999.0 mph 15 % 0 in
18:24 58.3 °F 13.6 °F 30.22 in Calm   -999.0 mph 17 % 0 in
18:39 56.5 °F 12.2 °F 30.23 in South 1.1 mph -999.0 mph 17 % 0 in
18:54 55.0 °F 12.2 °F 30.22 in South 1.7 mph -999.0 mph 18 % 0 in
19:09 54.0 °F 13.8 °F 30.22 in South 1.7 mph -999.0 mph 20 % 0 in
19:25 52.5 °F 14.7 °F 30.23 in Calm   -999.0 mph 22 % 0 in
20:10 48.9 °F 13.7 °F 30.23 in Calm   -999.0 mph 24 % 0 in
20:26 48.0 °F 15.6 °F 30.23 in Calm   -999.0 mph 27 % 0 in
20:41 46.8 °F 13.7 °F 30.24 in Calm   -999.0 mph 26 % 0 in
20:56 45.7 °F 12.7 °F 30.24 in Calm   -999.0 mph 26 % 0 in
21:11 45.0 °F 16.2 °F 30.24 in Calm   -999.0 mph 31 % 0 in
21:26 44.6 °F 18.6 °F 30.24 in Calm   -999.0 mph 35 % 0 in
21:42 43.7 °F 15.7 °F 30.24 in Calm   -999.0 mph 32 % 0 in
21:57 43.2 °F 19.3 °F 30.24 in Calm   -999.0 mph 38 % 0 in
22:12 42.4 °F 16.7 °F 30.25 in Calm   -999.0 mph 35 % 0 in
22:27 41.9 °F 18.7 °F 30.25 in Calm   -999.0 mph 39 % 0 in
22:42 41.4 °F 23.7 °F 30.25 in Calm   -999.0 mph 49 % 0 in
22:58 41.0 °F 25.2 °F 30.25 in Calm   -999.0 mph 53 % 0 in
23:13 40.1 °F 25.7 °F 30.24 in Calm   -999.0 mph 56 % 0 in
23:28 39.9 °F 23.2 °F 30.24 in Calm   -999.0 mph 51 % 0 in
23:58 39.4 °F 24.6 °F 30.24 in Calm   -999.0 mph 55 % 0 in
Big Bear CA Weather
Compliments of Weather Underground - 1.5 mb